createdAt,value
2024-04-06T00:01:27.732Z,12.26
2024-04-06T00:03:59.923Z,12.29
2024-04-06T00:06:31.846Z,12.33
2024-04-06T00:09:04.238Z,12.36
2024-04-06T00:11:35.840Z,12.37
2024-04-06T00:14:15.156Z,12.38
2024-04-06T00:16:46.882Z,12.38
2024-04-06T00:19:19.657Z,12.38
2024-04-06T00:21:51.490Z,12.39
2024-04-06T00:24:24.355Z,12.38
2024-04-06T00:26:56.530Z,12.38
2024-04-06T00:29:28.592Z,12.38
2024-04-06T00:32:03.972Z,12.39
2024-04-06T00:34:36.082Z,12.40
2024-04-06T00:37:10.069Z,12.41
2024-04-06T00:39:42.393Z,12.41
2024-04-06T00:42:17.635Z,12.41
2024-04-06T00:44:49.729Z,12.40
2024-04-06T00:47:21.996Z,12.37
2024-04-06T00:49:54.070Z,12.37
2024-04-06T00:52:27.123Z,12.38
2024-04-06T00:54:59.385Z,12.37
2024-04-06T00:57:31.363Z,12.32
2024-04-06T01:00:07.497Z,12.30
2024-04-06T01:02:40.374Z,12.32
2024-04-06T01:05:32.274Z,12.28
2024-04-06T01:08:05.180Z,12.24
2024-04-06T01:10:37.874Z,12.22
2024-04-06T01:13:11.800Z,12.18
2024-04-06T01:15:43.745Z,12.12
2024-04-06T01:18:16.658Z,12.03
2024-04-06T01:20:48.639Z,11.92
2024-04-06T01:23:24.977Z,11.80
2024-04-06T01:25:56.881Z,11.76
2024-04-06T01:28:28.572Z,11.77
2024-04-06T01:31:00.606Z,11.80
2024-04-06T01:33:32.491Z,11.84
2024-04-06T01:36:08.049Z,11.86
2024-04-06T01:38:39.933Z,11.91
2024-04-06T01:41:12.082Z,11.97
2024-04-06T01:43:45.192Z,12.05
2024-04-06T01:46:20.657Z,12.09
2024-04-06T01:48:52.277Z,12.11
2024-04-06T01:51:27.408Z,12.13
2024-04-06T01:54:01.375Z,12.16
2024-04-06T01:56:36.210Z,12.13
2024-04-06T01:59:11.304Z,12.07
2024-04-06T02:01:47.345Z,12.02
2024-04-06T02:04:19.439Z,11.97
2024-04-06T02:06:51.282Z,11.96
2024-04-06T02:09:22.986Z,11.96
2024-04-06T02:11:55.177Z,11.96
2024-04-06T02:14:27.068Z,11.96
2024-04-06T02:17:00.385Z,11.98
2024-04-06T02:19:50.018Z,12.03
2024-04-06T02:22:21.981Z,12.06
2024-04-06T02:24:53.682Z,12.08
2024-04-06T02:27:25.339Z,12.10
2024-04-06T02:29:56.988Z,12.11
2024-04-06T02:32:29.740Z,12.13
2024-04-06T02:35:01.466Z,12.14
2024-04-06T02:37:35.388Z,12.13
2024-04-06T02:40:10.948Z,12.13
2024-04-06T02:42:46.334Z,12.13
2024-04-06T02:45:20.410Z,12.12
2024-04-06T02:47:52.057Z,12.13
2024-04-06T02:50:23.782Z,12.14
2024-04-06T02:52:55.705Z,12.16
2024-04-06T02:55:27.376Z,12.19
2024-04-06T02:57:59.761Z,12.22
2024-04-06T03:00:31.441Z,12.23
2024-04-06T03:03:03.157Z,12.23
2024-04-06T03:05:34.883Z,12.22
2024-04-06T03:08:08.151Z,12.23
2024-04-06T03:10:39.738Z,12.25
2024-04-06T03:13:11.516Z,12.22
2024-04-06T03:15:43.150Z,12.21
2024-04-06T03:18:17.450Z,12.22
2024-04-06T03:20:59.082Z,12.20
2024-04-06T03:23:31.328Z,12.14
2024-04-06T03:26:03.225Z,12.10
2024-04-06T03:28:35.362Z,12.08
2024-04-06T03:31:07.476Z,12.07
2024-04-06T03:33:39.871Z,12.04
2024-04-06T03:36:11.934Z,11.99
2024-04-06T03:38:44.106Z,11.98
2024-04-06T03:41:18.129Z,11.96
2024-04-06T03:43:50.552Z,11.92
2024-04-06T03:47:10.620Z,11.85
2024-04-06T03:49:59.080Z,11.83
2024-04-06T03:52:31.003Z,11.81
2024-04-06T03:55:03.703Z,11.78
2024-04-06T03:57:35.760Z,11.77
2024-04-06T04:00:10.516Z,11.72
2024-04-06T04:02:44.658Z,11.66
2024-04-06T04:05:18.255Z,11.60
2024-04-06T04:07:51.379Z,11.55
2024-04-06T04:10:23.964Z,11.51
2024-04-06T04:12:55.751Z,11.48
2024-04-06T04:15:28.507Z,11.48
2024-04-06T04:18:03.026Z,11.49
2024-04-06T04:20:36.847Z,11.46
2024-04-06T04:23:09.002Z,11.42
2024-04-06T04:25:44.929Z,11.39
2024-04-06T04:28:29.729Z,11.38
2024-04-06T04:31:19.311Z,11.42
2024-04-06T04:34:03.189Z,11.41
2024-04-06T04:36:39.830Z,11.37
2024-04-06T04:39:14.339Z,11.31
2024-04-06T04:41:47.598Z,11.29
2024-04-06T04:44:35.739Z,11.30
2024-04-06T04:47:13.077Z,11.28
2024-04-06T04:49:44.919Z,11.28
2024-04-06T04:52:20.842Z,11.29
2024-04-06T04:54:54.266Z,11.31
2024-04-06T04:57:26.762Z,11.34
2024-04-06T04:59:59.862Z,11.37
2024-04-06T05:02:32.118Z,11.41
2024-04-06T05:05:05.211Z,11.44
2024-04-06T05:07:37.674Z,11.46
2024-04-06T05:10:11.867Z,11.51
2024-04-06T05:12:46.157Z,11.56
2024-04-06T05:15:21.040Z,11.62
2024-04-06T05:17:53.335Z,12.02
2024-04-06T05:20:25.781Z,12.96
2024-04-06T05:22:58.049Z,13.87
2024-04-06T05:25:29.626Z,14.59
2024-04-06T05:28:03.061Z,15.04
2024-04-06T05:30:45.000Z,15.59
2024-04-06T05:33:19.648Z,15.98
2024-04-06T05:35:54.976Z,16.30
2024-04-06T05:38:29.347Z,16.52
2024-04-06T05:41:01.154Z,16.67
2024-04-06T05:43:36.471Z,16.30
2024-04-06T05:46:08.605Z,15.81
2024-04-06T05:48:44.010Z,15.41
2024-04-06T05:51:15.695Z,15.01
2024-04-06T05:53:51.665Z,14.67
2024-04-06T05:56:23.481Z,14.41
2024-04-06T05:58:55.383Z,14.24
2024-04-06T06:01:27.965Z,14.05
2024-04-06T06:03:59.896Z,13.89
2024-04-06T06:06:55.704Z,13.80
2024-04-06T06:09:32.335Z,13.75
2024-04-06T06:12:04.043Z,13.64
2024-04-06T06:14:36.982Z,13.54
2024-04-06T06:17:09.122Z,13.52
2024-04-06T06:19:41.196Z,13.55
2024-04-06T06:22:13.139Z,13.94
2024-04-06T06:24:46.734Z,14.71
2024-04-06T06:27:20.536Z,15.42
2024-04-06T06:29:53.056Z,15.91
2024-04-06T06:32:33.448Z,16.63
2024-04-06T06:35:09.842Z,17.42
2024-04-06T06:43:30.376Z,19.93
2024-04-06T06:46:02.259Z,20.58
2024-04-06T06:48:34.192Z,20.68
2024-04-06T06:51:06.734Z,20.97
2024-04-06T06:53:38.415Z,21.50
2024-04-06T06:56:13.009Z,22.10
2024-04-06T06:58:47.512Z,22.64
2024-04-06T07:01:22.978Z,22.86
2024-04-06T07:03:54.884Z,22.93
2024-04-06T07:09:10.748Z,22.53
2024-04-06T07:11:44.912Z,22.17
2024-04-06T07:14:29.058Z,21.70
2024-04-06T07:17:02.058Z,21.13
2024-04-06T07:19:36.276Z,20.74
2024-04-06T07:22:09.019Z,20.38
2024-04-06T07:24:41.516Z,19.96
2024-04-06T07:27:13.767Z,19.51
2024-04-06T07:29:45.666Z,19.26
2024-04-06T07:32:20.577Z,19.08
2024-04-06T07:34:52.345Z,18.82
2024-04-06T07:37:25.221Z,18.50
2024-04-06T07:39:56.848Z,18.24
2024-04-06T07:42:29.618Z,17.98
2024-04-06T07:45:08.717Z,17.88
2024-04-06T07:47:42.298Z,18.02
2024-04-06T07:50:14.192Z,18.15
2024-04-06T07:52:47.369Z,18.18
2024-04-06T07:55:22.131Z,18.20
2024-04-06T07:58:03.251Z,18.18
2024-04-06T08:00:35.212Z,18.06
2024-04-06T08:03:07.864Z,18.01
2024-04-06T08:05:39.588Z,18.03
2024-04-06T08:08:11.757Z,18.09
2024-04-06T08:10:46.388Z,18.13
2024-04-06T08:13:21.966Z,18.06
2024-04-06T08:15:54.051Z,18.14
2024-04-06T08:18:26.961Z,18.32
2024-04-06T08:21:01.125Z,18.57
2024-04-06T08:23:36.268Z,18.71
2024-04-06T08:26:08.208Z,18.68
2024-04-06T08:28:50.623Z,18.80
2024-04-06T08:31:39.121Z,19.12
2024-04-06T08:34:11.167Z,19.28
2024-04-06T08:36:43.226Z,19.41
2024-04-06T08:39:15.441Z,19.37
2024-04-06T08:41:50.158Z,19.27
2024-04-06T08:44:34.083Z,19.16
2024-04-06T08:47:10.053Z,19.09
2024-04-06T08:49:43.126Z,18.91
2024-04-06T08:52:16.088Z,18.75
2024-04-06T08:54:49.682Z,18.59
2024-04-06T08:57:22.365Z,18.46
2024-04-06T08:59:56.655Z,18.30
2024-04-06T09:02:33.437Z,18.17
2024-04-06T09:05:09.236Z,18.02
2024-04-06T09:07:40.918Z,18.00
2024-04-06T09:10:12.792Z,17.97
2024-04-06T09:12:44.800Z,17.92
2024-04-06T09:15:21.667Z,17.86
2024-04-06T09:17:53.234Z,17.73
2024-04-06T09:20:25.525Z,17.62
2024-04-06T09:22:58.038Z,17.62
2024-04-06T09:25:29.847Z,17.62
2024-04-06T09:28:01.555Z,17.62
2024-04-06T09:30:43.611Z,17.62
2024-04-06T09:33:16.899Z,17.56
2024-04-06T09:35:50.848Z,17.52
2024-04-06T09:38:28.715Z,17.53
2024-04-06T09:41:01.068Z,17.55
2024-04-06T09:43:33.071Z,17.60
2024-04-06T09:46:05.579Z,17.64
2024-04-06T09:48:39.099Z,17.70
2024-04-06T09:51:14.113Z,17.85
2024-04-06T09:53:48.521Z,18.04
2024-04-06T09:56:23.250Z,18.14
2024-04-06T09:59:29.461Z,18.19
2024-04-06T10:02:01.749Z,18.22
2024-04-06T10:04:39.607Z,18.23
2024-04-06T10:07:15.823Z,18.28
2024-04-06T10:09:47.982Z,18.19
2024-04-06T10:12:20.675Z,18.16
2024-04-06T10:14:52.214Z,18.04
2024-04-06T10:17:24.948Z,17.93
2024-04-06T10:20:00.494Z,18.03
2024-04-06T10:22:46.905Z,18.49
2024-04-06T10:25:23.967Z,19.01
2024-04-06T10:28:07.918Z,19.45
2024-04-06T10:30:40.926Z,19.65
2024-04-06T10:33:12.908Z,19.80
2024-04-06T10:35:49.148Z,20.03
2024-04-06T10:38:23.643Z,20.33
2024-04-06T10:40:55.412Z,20.50
2024-04-06T10:43:27.346Z,20.67
2024-04-06T10:45:59.013Z,20.78
2024-04-06T10:48:31.389Z,20.81
2024-04-06T10:51:04.072Z,21.01
2024-04-06T10:53:38.075Z,21.10
2024-04-06T10:56:12.795Z,21.02
2024-04-06T10:58:45.067Z,20.92
2024-04-06T11:01:20.983Z,20.78
2024-04-06T11:04:14.946Z,20.64
2024-04-06T11:06:46.768Z,20.34
2024-04-06T11:09:20.212Z,20.16
2024-04-06T11:11:52.325Z,20.15
2024-04-06T11:14:29.009Z,20.17
2024-04-06T11:17:03.475Z,20.23
2024-04-06T11:19:38.152Z,20.33
2024-04-06T11:22:10.279Z,20.45
2024-04-06T11:24:43.442Z,20.55
2024-04-06T11:27:15.547Z,20.67
2024-04-06T11:30:02.668Z,20.89
2024-04-06T11:32:37.028Z,21.03
2024-04-06T11:35:10.077Z,21.11
2024-04-06T11:37:42.217Z,21.05
2024-04-06T11:40:14.614Z,20.88
2024-04-06T11:42:46.621Z,20.88
2024-04-06T11:45:19.540Z,20.91
2024-04-06T11:47:56.100Z,20.99
2024-04-06T11:50:30.485Z,21.03
2024-04-06T11:53:02.193Z,21.06
2024-04-06T11:55:34.575Z,20.96
2024-04-06T11:58:16.923Z,20.68
2024-04-06T12:00:51.681Z,20.61
2024-04-06T12:03:23.306Z,20.70
2024-04-06T12:05:59.060Z,20.75
2024-04-06T12:08:31.198Z,20.75
2024-04-06T12:11:03.334Z,20.76
2024-04-06T12:13:38.467Z,20.78
2024-04-06T12:16:14.528Z,20.78
2024-04-06T12:18:46.323Z,20.83
2024-04-06T12:21:19.202Z,20.85
2024-04-06T12:23:54.924Z,20.82
2024-04-06T12:26:28.436Z,20.83
2024-04-06T12:29:00.178Z,20.84
2024-04-06T12:31:50.242Z,20.80
2024-04-06T12:34:22.058Z,20.59
2024-04-06T12:36:54.583Z,20.40
2024-04-06T12:39:26.586Z,20.28
2024-04-06T12:41:59.099Z,20.16
2024-04-06T12:44:30.777Z,19.88
2024-04-06T12:47:03.377Z,19.62
2024-04-06T12:49:35.111Z,19.45
2024-04-06T12:52:08.347Z,19.42
2024-04-06T12:54:40.001Z,19.45
2024-04-06T12:57:29.773Z,19.40
2024-04-06T13:00:01.587Z,19.33
2024-04-06T13:02:33.312Z,19.36
2024-04-06T13:05:05.014Z,19.43
2024-04-06T13:07:38.855Z,19.50
2024-04-06T13:10:10.985Z,19.61
2024-04-06T13:12:42.996Z,19.69
2024-04-06T13:15:14.854Z,19.70
2024-04-06T13:17:47.021Z,19.62
2024-04-06T13:20:28.165Z,19.56
2024-04-06T13:23:00.125Z,19.47
2024-04-06T13:25:31.678Z,19.39
2024-04-06T13:28:05.249Z,19.34
2024-04-06T13:30:39.380Z,19.39
2024-04-06T13:33:11.297Z,19.47
2024-04-06T13:35:43.159Z,19.58
2024-04-06T13:38:21.670Z,19.61
2024-04-06T13:40:53.525Z,19.57
2024-04-06T13:43:26.350Z,19.59
2024-04-06T13:45:59.400Z,19.60
2024-04-06T13:48:34.777Z,19.65
2024-04-06T13:51:08.263Z,19.73
2024-04-06T13:53:42.494Z,19.80
2024-04-06T13:56:17.611Z,19.79
2024-04-06T13:58:52.323Z,19.81
2024-04-06T14:01:38.659Z,19.83
2024-04-06T14:04:10.754Z,19.73
2024-04-06T14:06:47.335Z,19.57
2024-04-06T14:09:23.766Z,19.38
2024-04-06T14:11:56.091Z,19.20
2024-04-06T14:14:31.218Z,19.07
2024-04-06T14:17:05.732Z,19.02
2024-04-06T14:19:38.304Z,19.00
2024-04-06T14:22:09.901Z,19.01
2024-04-06T14:24:42.242Z,19.01
2024-04-06T14:27:14.194Z,18.99
2024-04-06T14:29:46.267Z,18.97
2024-04-06T14:32:18.197Z,18.93
2024-04-06T14:34:51.328Z,18.88
2024-04-06T14:37:25.627Z,18.84
2024-04-06T14:39:57.907Z,18.80
2024-04-06T14:42:29.472Z,18.77
2024-04-06T14:45:01.404Z,18.70
2024-04-06T14:47:33.242Z,18.61
2024-04-06T14:50:06.178Z,18.56
2024-04-06T14:52:38.859Z,18.55
2024-04-06T14:55:11.163Z,18.51
2024-04-06T14:57:42.888Z,18.40
2024-04-06T15:00:17.108Z,18.33
2024-04-06T15:02:59.780Z,18.30
2024-04-06T15:05:31.988Z,18.30
2024-04-06T15:08:03.744Z,18.28
2024-04-06T15:10:36.875Z,18.27
2024-04-06T15:13:11.462Z,18.21
2024-04-06T15:15:44.383Z,18.16
2024-04-06T15:18:16.469Z,18.09
2024-04-06T15:20:50.652Z,18.04
2024-04-06T15:23:25.206Z,18.01
2024-04-06T15:25:56.858Z,17.97
2024-04-06T15:28:28.742Z,17.90
2024-04-06T15:31:00.831Z,17.78
2024-04-06T15:33:32.430Z,17.66
2024-04-06T15:36:04.440Z,17.56
2024-04-06T15:38:36.790Z,17.49
2024-04-06T15:41:09.299Z,17.44
2024-04-06T15:43:44.198Z,17.42
2024-04-06T15:46:19.247Z,17.40
2024-04-06T15:48:52.055Z,17.37
2024-04-06T15:51:24.125Z,17.35
2024-04-06T15:53:56.003Z,17.32
2024-04-06T15:56:29.465Z,17.28
2024-04-06T15:59:01.340Z,17.24
2024-04-06T16:01:40.378Z,17.22
2024-04-06T16:04:12.366Z,17.14
2024-04-06T16:06:44.183Z,17.08
2024-04-06T16:09:15.944Z,17.04
2024-04-06T16:11:50.985Z,16.96
2024-04-06T16:14:24.693Z,16.89
2024-04-06T16:16:56.363Z,16.83
2024-04-06T16:19:28.850Z,16.78
2024-04-06T16:22:00.886Z,16.72
2024-04-06T16:24:33.918Z,16.65
2024-04-06T16:27:06.093Z,16.60
2024-04-06T16:29:37.720Z,16.56
2024-04-06T16:32:10.621Z,16.51
2024-04-06T16:34:42.308Z,16.49
2024-04-06T16:37:14.396Z,16.45
2024-04-06T16:39:46.306Z,16.42
2024-04-06T16:42:18.091Z,16.37
2024-04-06T16:44:49.892Z,16.30
2024-04-06T16:47:21.499Z,16.23
2024-04-06T16:49:55.839Z,16.18
2024-04-06T16:52:28.724Z,16.11
2024-04-06T16:55:00.484Z,16.01
2024-04-06T16:57:32.177Z,15.92
2024-04-06T17:00:06.433Z,15.85
2024-04-06T17:02:38.245Z,15.77
2024-04-06T17:05:12.233Z,15.70
2024-04-06T17:07:44.055Z,15.60
2024-04-06T17:10:16.337Z,15.51
2024-04-06T17:12:50.127Z,15.45
2024-04-06T17:15:27.724Z,15.40
2024-04-06T17:17:58.455Z,15.33
2024-04-06T17:20:30.983Z,15.28
2024-04-06T17:23:05.356Z,15.23
2024-04-06T17:25:37.639Z,15.13
2024-04-06T17:28:09.676Z,15.03
2024-04-06T17:30:43.363Z,14.88
2024-04-06T17:33:15.865Z,14.73
2024-04-06T17:35:48.308Z,14.58
2024-04-06T17:38:20.474Z,14.45
2024-04-06T17:40:55.467Z,14.33
2024-04-06T17:43:34.247Z,14.19
2024-04-06T17:46:10.167Z,14.08
2024-04-06T17:48:42.212Z,13.99
2024-04-06T17:51:14.564Z,13.93
2024-04-06T17:53:46.361Z,13.88
2024-04-06T17:56:19.206Z,13.79
2024-04-06T17:58:53.531Z,13.71
2024-04-06T18:01:31.621Z,13.72
2024-04-06T18:04:06.320Z,13.75
2024-04-06T18:06:39.042Z,13.75
2024-04-06T18:09:12.085Z,13.65
2024-04-06T18:11:56.591Z,13.55
2024-04-06T18:14:35.989Z,13.42
2024-04-06T18:17:09.763Z,13.30
2024-04-06T18:19:43.310Z,13.26
2024-04-06T18:22:15.356Z,13.20
2024-04-06T18:24:51.261Z,13.14
2024-04-06T18:27:26.920Z,13.07
2024-04-06T18:29:58.825Z,13.00
2024-04-06T18:32:32.855Z,12.88
2024-04-06T18:35:05.162Z,12.81
2024-04-06T18:37:37.171Z,12.74
2024-04-06T18:40:10.381Z,12.62
2024-04-06T18:42:45.643Z,12.54
2024-04-06T18:45:27.714Z,12.42
2024-04-06T18:48:01.884Z,12.38
2024-04-06T18:50:34.775Z,12.35
2024-04-06T18:53:09.987Z,12.32
2024-04-06T18:55:50.860Z,12.26
2024-04-06T18:58:22.839Z,12.16
2024-04-06T19:01:03.207Z,12.09
2024-04-06T19:03:35.556Z,12.03
2024-04-06T19:06:08.361Z,11.99
2024-04-06T19:08:41.632Z,12.01
2024-04-06T19:11:15.946Z,12.03
2024-04-06T19:13:50.678Z,11.96
2024-04-06T19:16:22.410Z,11.86
2024-04-06T19:18:54.367Z,11.78
2024-04-06T19:21:28.780Z,11.70
2024-04-06T19:24:12.721Z,11.64
2024-04-06T19:26:48.589Z,11.60
2024-04-06T19:29:24.171Z,11.62
2024-04-06T19:31:57.454Z,11.63
2024-04-06T19:34:31.613Z,11.67
2024-04-06T19:37:04.167Z,11.64
2024-04-06T19:39:36.019Z,11.51
2024-04-06T19:42:08.800Z,11.39
2024-04-06T19:44:41.713Z,11.25
2024-04-06T19:47:19.698Z,11.16
2024-04-06T19:49:54.765Z,11.05
2024-04-06T19:52:28.289Z,10.99
2024-04-06T19:54:59.983Z,10.93
2024-04-06T19:57:32.361Z,10.93
2024-04-06T20:00:05.568Z,10.99
2024-04-06T20:02:43.838Z,11.08
2024-04-06T20:05:30.743Z,11.07
2024-04-06T20:08:03.372Z,11.00
2024-04-06T20:10:52.090Z,10.98
2024-04-06T20:13:23.151Z,10.87
2024-04-06T20:15:55.576Z,10.71
2024-04-06T20:18:33.198Z,10.59
2024-04-06T20:21:05.177Z,10.53
2024-04-06T20:23:55.200Z,10.53
2024-04-06T20:26:34.613Z,10.52
2024-04-06T20:29:10.530Z,10.54
2024-04-06T20:31:52.014Z,10.62
2024-04-06T20:34:24.224Z,10.66
2024-04-06T20:37:07.523Z,10.68
2024-04-06T20:39:40.413Z,10.70
2024-04-06T20:42:13.642Z,10.71
2024-04-06T20:44:48.572Z,10.71
2024-04-06T20:47:20.894Z,10.72
2024-04-06T20:49:56.128Z,10.74
2024-04-06T20:52:30.579Z,10.75
2024-04-06T20:55:02.937Z,10.75
2024-04-06T20:57:34.542Z,10.69
2024-04-06T21:00:07.850Z,10.57
2024-04-06T21:02:39.588Z,10.44
2024-04-06T21:05:11.445Z,10.44
2024-04-06T21:07:43.125Z,10.50
2024-04-06T21:10:16.477Z,10.51
2024-04-06T21:12:59.041Z,10.42
2024-04-06T21:15:37.444Z,10.35
2024-04-06T21:18:09.473Z,10.33
2024-04-06T21:20:42.379Z,10.30
2024-04-06T21:23:14.475Z,10.28
2024-04-06T21:25:46.443Z,10.32
2024-04-06T21:28:18.060Z,10.39
2024-04-06T21:30:50.295Z,10.34
2024-04-06T21:33:22.059Z,10.19
2024-04-06T21:35:54.115Z,10.05
2024-04-06T21:38:25.597Z,9.92
2024-04-06T21:41:02.395Z,9.83
2024-04-06T21:43:34.111Z,9.79
2024-04-06T21:46:10.075Z,9.74
2024-04-06T21:48:44.011Z,9.72
2024-04-06T21:51:16.467Z,9.69
2024-04-06T21:53:48.215Z,9.66
2024-04-06T21:56:20.552Z,9.71
2024-04-06T21:58:52.424Z,9.83
2024-04-06T22:01:30.463Z,9.85
2024-04-06T22:04:07.207Z,9.73
2024-04-06T22:06:39.209Z,9.58
2024-04-06T22:09:11.387Z,9.45
2024-04-06T22:11:43.345Z,9.39
2024-04-06T22:14:14.961Z,9.38
2024-04-06T22:16:48.483Z,9.34
2024-04-06T22:19:20.175Z,9.22
2024-04-06T22:21:52.372Z,9.12
2024-04-06T22:24:23.970Z,9.09
2024-04-06T22:26:56.265Z,9.06
2024-04-06T22:29:29.322Z,9.05
2024-04-06T22:32:01.548Z,9.03
2024-04-06T22:34:33.213Z,9.03
2024-04-06T22:37:05.859Z,9.06
2024-04-06T22:39:37.414Z,9.13
2024-04-06T22:42:09.674Z,9.22
2024-04-06T22:44:43.242Z,9.30
2024-04-06T22:47:17.722Z,9.35
2024-04-06T22:49:49.328Z,9.42
2024-04-06T22:52:21.274Z,9.46
2024-04-06T22:54:53.133Z,9.47
2024-04-06T22:57:25.763Z,9.38
2024-04-06T22:59:58.430Z,9.26
2024-04-06T23:02:35.583Z,9.23
2024-04-06T23:05:08.063Z,9.26
2024-04-06T23:07:41.282Z,9.20
2024-04-06T23:10:13.439Z,9.21
2024-04-06T23:12:45.371Z,9.24
2024-04-06T23:15:17.216Z,9.22
2024-04-06T23:17:57.755Z,9.09
2024-04-06T23:20:35.414Z,9.08
2024-04-06T23:23:07.593Z,9.09
2024-04-06T23:25:39.456Z,9.04
2024-04-06T23:28:12.102Z,9.04
2024-04-06T23:30:45.480Z,9.00
2024-04-06T23:33:16.993Z,8.98
2024-04-06T23:35:48.927Z,8.91
2024-04-06T23:38:20.738Z,8.75
2024-04-06T23:40:53.272Z,8.70
2024-04-06T23:43:30.422Z,8.63
2024-04-06T23:46:05.274Z,8.56
2024-04-06T23:48:39.057Z,8.49
2024-04-06T23:51:11.805Z,8.44
2024-04-06T23:53:43.518Z,8.38
2024-04-06T23:56:15.910Z,8.35
2024-04-06T23:58:48.538Z,8.34
